Time;durP1;ratioP1;P1;durP2;ratioP2;P2;SDS_P1;SDS_P2;PMS_P1;PMS_P2;Temp;Humidity;BMP_temperature;BMP_pressure;BME280_temperature;BME280_humidity;BME280_pressure;Samples;Min_cycle;Max_cycle;Signal;HPM_P1;HPM_P2
2021/06/05 00:00:01;;;;;;;10.88;8.05;;;19.60;99.10;;;;;;5094865;28;20561;-73
2021/06/05 00:02:30;;;;;;;11.55;7.40;;;19.50;99.30;;;;;;5095764;28;20103;-73
2021/06/05 00:04:59;;;;;;;15.45;7.97;;;19.50;99.40;;;;;;5100466;28;20027;-73
2021/06/05 00:07:25;;;;;;;10.98;6.85;;;19.50;99.50;;;;;;5094915;28;20524;-73
2021/06/05 00:09:51;;;;;;;12.30;7.38;;;19.50;99.70;;;;;;5105175;28;20055;-73
2021/06/05 00:12:27;;;;;;;8.93;7.88;;;19.40;99.70;;;;;;5105169;28;20512;-73
2021/06/05 00:14:53;;;;;;;11.30;8.68;;;19.30;99.90;;;;;;5108767;28;20031;-73
2021/06/05 00:17:19;;;;;;;10.70;7.43;;;19.30;99.90;;;;;;5107318;28;20546;-73
2021/06/05 00:19:45;;;;;;;10.30;8.70;;;19.20;99.90;;;;;;5106980;28;20065;-73
2021/06/05 00:22:11;;;;;;;11.57;8.75;;;19.20;99.90;;;;;;5099957;28;20024;-73
2021/06/05 00:24:39;;;;;;;10.02;7.88;;;19.40;99.90;;;;;;5114156;28;20119;-73
2021/06/05 00:27:05;;;;;;;12.65;8.73;;;19.50;99.90;;;;;;5109084;28;20516;-73
2021/06/05 00:29:31;;;;;;;15.52;10.68;;;19.50;99.90;;;;;;5094620;28;20024;-73
2021/06/05 00:31:56;;;;;;;13.18;8.45;;;19.60;99.70;;;;;;5094349;28;20111;-73
2021/06/05 00:34:22;;;;;;;10.35;8.25;;;19.50;99.80;;;;;;5110945;28;20540;-73
2021/06/05 00:36:48;;;;;;;10.32;7.85;;;19.40;99.90;;;;;;5108919;28;20107;-73
2021/06/05 00:39:13;;;;;;;12.25;8.68;;;19.30;99.90;;;;;;5094225;28;20107;-73
2021/06/05 00:41:40;;;;;;;11.35;8.80;;;19.30;99.90;;;;;;5093840;28;20422;-73
2021/06/05 00:44:08;;;;;;;9.77;7.60;;;19.30;99.90;;;;;;5098298;28;20036;-73
2021/06/05 00:46:34;;;;;;;11.32;7.97;;;19.30;99.90;;;;;;5100143;28;20032;-73
2021/06/05 00:49:02;;;;;;;11.60;8.05;;;19.20;99.90;;;;;;5099180;28;20463;-73
2021/06/05 00:51:42;;;;;;;10.98;9.07;;;19.20;99.90;;;;;;5097504;28;20035;-73
2021/06/05 00:54:09;;;;;;;12.00;8.30;;;19.20;99.90;;;;;;5113580;28;20019;-73
2021/06/05 00:56:35;;;;;;;9.65;7.40;;;19.30;99.90;;;;;;5112525;28;20031;-73
2021/06/05 00:59:01;;;;;;;11.70;8.80;;;19.20;99.90;;;;;;5108744;28;20028;-73
2021/06/05 01:01:29;;;;;;;12.90;9.40;;;19.20;99.90;;;;;;5098115;28;20020;-73
2021/06/05 01:03:55;;;;;;;11.18;8.73;;;19.20;99.90;;;;;;5101483;28;20481;-73
2021/06/05 01:06:27;;;;;;;10.98;8.93;;;19.20;99.90;;;;;;5107085;27;20028;-73
2021/06/05 01:09:25;;;;;;;11.50;8.32;;;19.00;99.90;;;;;;5107820;28;20029;-73
2021/06/05 01:12:19;;;;;;;11.60;8.93;;;18.90;99.90;;;;;;5101480;28;20066;-73
2021/06/05 01:14:51;;;;;;;12.35;8.48;;;18.80;99.90;;;;;;5100801;28;20104;-73
2021/06/05 01:17:23;;;;;;;10.80;8.02;;;18.80;99.90;;;;;;5093128;28;20465;-73
2021/06/05 01:20:09;;;;;;;12.27;7.80;;;18.80;99.90;;;;;;5094239;28;20043;-73
2021/06/05 01:22:56;;;;;;;9.60;8.15;;;18.80;99.90;;;;;;5100253;28;20020;-73
2021/06/05 01:25:45;;;;;;;9.40;7.70;;;18.80;99.90;;;;;;5110595;28;20043;-73
2021/06/05 01:28:29;;;;;;;12.13;8.57;;;18.80;99.90;;;;;;5113096;28;20406;-73
2021/06/05 01:30:58;;;;;;;10.65;8.23;;;18.60;99.90;;;;;;5103668;28;20027;-73
2021/06/05 01:33:28;;;;;;;10.40;8.15;;;18.60;99.90;;;;;;5111785;28;20023;-73
2021/06/05 01:35:54;;;;;;;12.65;8.95;;;18.50;99.90;;;;;;5108663;28;20471;-73
2021/06/05 01:38:21;;;;;;;12.18;9.27;;;18.40;99.90;;;;;;5108846;28;20031;-73
2021/06/05 01:40:49;;;;;;;11.88;7.90;;;18.50;99.90;;;;;;5111517;28;20020;-73
2021/06/05 01:43:18;;;;;;;11.65;9.10;;;18.40;99.90;;;;;;5098689;28;20820;-72
2021/06/05 01:45:46;;;;;;;12.30;8.75;;;18.30;99.90;;;;;;5100746;28;20508;-73
2021/06/05 01:48:13;;;;;;;9.65;8.20;;;18.30;99.90;;;;;;5090720;28;20039;-73
2021/06/05 01:50:42;;;;;;;11.10;8.55;;;18.40;99.90;;;;;;5094675;28;20126;-73
2021/06/05 01:53:32;;;;;;;11.05;8.60;;;18.30;99.90;;;;;;5107645;28;20437;-72
2021/06/05 01:56:08;;;;;;;10.68;8.63;;;18.40;99.90;;;;;;5100523;28;20487;-73
2021/06/05 01:58:37;;;;;;;11.93;9.43;;;18.30;99.90;;;;;;5111513;28;20027;-73
2021/06/05 02:01:05;;;;;;;13.75;9.15;;;18.40;99.90;;;;;;5097908;28;20042;-73
2021/06/05 02:03:30;;;;;;;13.82;9.60;;;18.30;99.90;;;;;;5110960;28;20036;-73
2021/06/05 02:05:56;;;;;;;12.27;9.13;;;18.30;99.90;;;;;;5097393;28;20085;-73
2021/06/05 02:08:26;;;;;;;10.52;8.23;;;18.20;99.90;;;;;;5099987;28;20023;-73
2021/06/05 02:10:55;;;;;;;11.02;9.40;;;18.20;99.90;;;;;;5104291;28;20490;-73
2021/06/05 02:13:32;;;;;;;13.45;9.05;;;18.10;99.90;;;;;;5092660;28;20028;-73
2021/06/05 02:16:03;;;;;;;12.35;9.27;;;18.20;99.90;;;;;;5093163;28;20048;-73
2021/06/05 02:18:32;;;;;;;11.55;9.73;;;18.00;99.90;;;;;;5093287;28;20381;-73
2021/06/05 02:21:04;;;;;;;10.43;8.70;;;18.10;99.90;;;;;;5106549;28;20085;-73
2021/06/05 02:23:57;;;;;;;11.27;8.77;;;18.10;99.90;;;;;;5112285;28;20035;-73
2021/06/05 02:26:24;;;;;;;11.68;9.57;;;18.10;99.90;;;;;;5104148;28;20093;-73
2021/06/05 02:28:53;;;;;;;12.20;9.57;;;18.20;99.90;;;;;;5104660;28;20164;-73
2021/06/05 02:31:20;;;;;;;13.88;9.55;;;18.30;99.90;;;;;;5107614;28;20022;-73
2021/06/05 02:33:47;;;;;;;12.65;9.85;;;18.20;99.90;;;;;;5091829;28;20031;-73
2021/06/05 02:36:13;;;;;;;15.15;9.35;;;18.20;99.90;;;;;;5092197;28;20371;-73
2021/06/05 02:38:41;;;;;;;13.43;9.95;;;18.30;99.90;;;;;;5092631;28;20035;-73
2021/06/05 02:41:10;;;;;;;11.68;9.45;;;18.50;99.90;;;;;;5100685;28;20028;-73
2021/06/05 02:43:37;;;;;;;13.55;9.73;;;18.50;99.90;;;;;;5092673;28;20043;-73
2021/06/05 02:46:26;;;;;;;18.13;9.38;;;18.60;99.90;;;;;;5099969;28;20055;-73
2021/06/05 02:48:55;;;;;;;10.88;9.55;;;18.50;99.90;;;;;;5097527;28;20035;-73
2021/06/05 02:51:27;;;;;;;11.93;9.63;;;18.50;99.90;;;;;;5108573;28;20169;-73
2021/06/05 02:53:53;;;;;;;14.55;10.40;;;18.50;99.90;;;;;;5110437;28;20395;-73
2021/06/05 02:56:20;;;;;;;15.75;9.65;;;18.50;99.90;;;;;;5101646;28;20533;-73
2021/06/05 02:58:46;;;;;;;11.13;9.07;;;18.50;99.90;;;;;;5110335;28;20035;-73
2021/06/05 03:01:13;;;;;;;10.43;8.57;;;18.50;99.90;;;;;;5111040;28;20489;-73
2021/06/05 03:03:39;;;;;;;14.23;8.80;;;18.60;99.90;;;;;;5091577;28;20067;-73
2021/06/05 03:06:06;;;;;;;11.98;8.10;;;18.60;99.90;;;;;;5091808;28;20066;-73
2021/06/05 03:08:36;;;;;;;11.48;8.90;;;18.70;99.90;;;;;;5089355;28;20023;-73
2021/06/05 03:11:05;;;;;;;11.88;9.20;;;18.80;99.90;;;;;;5099372;28;20055;-73
2021/06/05 03:13:31;;;;;;;11.32;8.60;;;18.70;99.90;;;;;;5101417;28;20063;-73
2021/06/05 03:15:57;;;;;;;12.10;7.68;;;18.80;99.90;;;;;;5089178;28;20634;-73
2021/06/05 03:18:25;;;;;;;13.60;9.30;;;18.80;99.90;;;;;;5102018;28;20031;-73
2021/06/05 03:20:52;;;;;;;12.60;8.57;;;18.80;99.90;;;;;;5089097;28;20365;-73
2021/06/05 03:23:20;;;;;;;9.40;8.07;;;18.70;99.90;;;;;;5094819;28;20502;-73
2021/06/05 03:25:46;;;;;;;11.20;8.30;;;18.70;99.90;;;;;;5088805;28;20028;-73
2021/06/05 03:28:13;;;;;;;10.98;8.50;;;18.60;99.90;;;;;;5096465;28;20028;-73
2021/06/05 03:30:40;;;;;;;10.05;8.32;;;18.40;99.90;;;;;;5083012;28;20051;-73
2021/06/05 03:33:06;;;;;;;14.02;9.55;;;18.30;99.90;;;;;;5083590;28;20089;-73
2021/06/05 03:35:33;;;;;;;11.70;8.68;;;18.20;99.90;;;;;;5088985;28;20023;-73
2021/06/05 03:37:59;;;;;;;11.18;9.68;;;18.20;99.90;;;;;;5093318;28;20031;-73
2021/06/05 03:40:29;;;;;;;11.20;8.82;;;18.20;99.90;;;;;;5090822;28;20024;-73
2021/06/05 03:42:56;;;;;;;12.75;9.05;;;17.90;99.90;;;;;;5083456;28;20103;-73
2021/06/05 03:45:23;;;;;;;14.23;9.13;;;18.00;99.90;;;;;;5086697;28;20058;-73
2021/06/05 03:47:49;;;;;;;12.27;9.30;;;18.10;99.90;;;;;;5104794;28;20067;-73
2021/06/05 03:50:18;;;;;;;12.90;9.40;;;18.20;99.90;;;;;;5093716;28;20057;-73
2021/06/05 03:52:44;;;;;;;15.80;8.65;;;18.20;99.90;;;;;;5107845;28;20354;-73
2021/06/05 03:55:11;;;;;;;11.90;9.35;;;18.30;99.90;;;;;;5088496;27;20089;-73
2021/06/05 03:57:38;;;;;;;13.52;9.32;;;18.20;99.90;;;;;;5091082;28;20020;-73
2021/06/05 04:00:07;;;;;;;11.85;9.30;;;18.40;99.90;;;;;;5088624;28;20886;-73
2021/06/05 04:02:33;;;;;;;12.30;8.63;;;18.30;99.90;;;;;;5093267;28;20110;-73
2021/06/05 04:04:59;;;;;;;12.07;8.90;;;18.40;99.90;;;;;;5086853;28;20496;-72
2021/06/05 04:07:25;;;;;;;9.98;8.65;;;18.40;99.90;;;;;;5101330;28;20061;-73
2021/06/05 04:09:50;;;;;;;11.02;9.15;;;18.30;99.90;;;;;;5105361;28;20531;-73
2021/06/05 04:12:16;;;;;;;12.80;8.75;;;18.30;99.90;;;;;;5087154;28;20085;-73
2021/06/05 04:14:42;;;;;;;11.93;9.27;;;18.20;99.90;;;;;;5090170;28;20917;-73
2021/06/05 04:17:09;;;;;;;12.05;9.75;;;18.30;99.90;;;;;;5095549;28;20375;-73
2021/06/05 04:19:36;;;;;;;12.30;9.82;;;18.30;99.90;;;;;;5091000;28;20123;-73
2021/06/05 04:22:03;;;;;;;13.98;9.82;;;18.30;99.90;;;;;;5086603;28;20035;-73
2021/06/05 04:24:29;;;;;;;11.02;9.25;;;18.40;99.90;;;;;;5087076;28;20174;-73
2021/06/05 04:26:55;;;;;;;11.82;9.45;;;18.40;99.90;;;;;;5103692;28;20051;-73
2021/06/05 04:29:21;;;;;;;11.50;8.98;;;18.40;99.90;;;;;;5104832;28;20034;-73
2021/06/05 04:31:46;;;;;;;13.35;8.63;;;18.60;99.90;;;;;;5088269;28;20036;-73
2021/06/05 04:34:12;;;;;;;11.40;9.15;;;18.70;99.90;;;;;;5088765;28;20027;-73
2021/06/05 04:36:38;;;;;;;9.85;7.72;;;18.70;99.90;;;;;;5086670;28;20478;-73
2021/06/05 04:39:05;;;;;;;12.15;9.25;;;18.70;99.90;;;;;;5097643;28;22463;-73
2021/06/05 04:41:31;;;;;;;9.82;7.75;;;18.70;99.90;;;;;;5102977;28;20028;-73
2021/06/05 04:43:57;;;;;;;10.95;8.30;;;18.70;99.90;;;;;;5089087;28;20394;-73
2021/06/05 04:46:23;;;;;;;9.32;8.30;;;18.80;99.90;;;;;;5093627;28;20042;-73
2021/06/05 04:48:49;;;;;;;10.38;8.25;;;18.90;99.90;;;;;;5104734;28;20020;-73
2021/06/05 04:51:17;;;;;;;10.75;8.27;;;19.00;99.90;;;;;;5086281;28;20103;-73
2021/06/05 04:53:42;;;;;;;11.52;7.60;;;18.80;99.90;;;;;;5099001;28;20641;-73
2021/06/05 04:56:09;;;;;;;9.93;6.85;;;18.80;99.90;;;;;;5086507;28;20028;-73
2021/06/05 04:58:34;;;;;;;10.43;8.02;;;18.90;99.90;;;;;;5098121;28;20081;-73
2021/06/05 05:01:00;;;;;;;9.40;7.78;;;18.80;99.90;;;;;;5090072;28;20031;-73
2021/06/05 05:03:28;;;;;;;10.55;7.57;;;18.90;99.90;;;;;;5085492;28;20111;-73
2021/06/05 05:06:02;;;;;;;11.02;8.02;;;18.80;99.90;;;;;;5085838;28;20067;-73
2021/06/05 05:08:29;;;;;;;11.05;8.25;;;18.80;99.90;;;;;;5104275;28;20092;-73
2021/06/05 05:10:56;;;;;;;9.93;8.35;;;18.70;99.90;;;;;;5091032;28;20029;-73
2021/06/05 05:13:24;;;;;;;9.10;7.63;;;18.80;99.90;;;;;;5084996;28;20051;-73
2021/06/05 05:15:51;;;;;;;9.15;7.00;;;18.70;99.90;;;;;;5084506;28;20060;-73
2021/06/05 05:18:16;;;;;;;8.02;6.40;;;18.80;99.90;;;;;;5098703;28;20023;-73
2021/06/05 05:20:44;;;;;;;8.93;6.85;;;18.70;99.90;;;;;;5093206;28;20375;-73
2021/06/05 05:23:11;;;;;;;9.63;7.10;;;18.70;99.90;;;;;;5097638;28;20086;-73
2021/06/05 05:25:39;;;;;;;9.48;7.00;;;18.60;99.90;;;;;;5085591;28;20038;-73
2021/06/05 05:28:05;;;;;;;11.45;8.48;;;18.50;99.90;;;;;;5097849;28;20039;-73
2021/06/05 05:30:35;;;;;;;9.60;8.05;;;18.40;99.90;;;;;;5097981;28;20032;-73
2021/06/05 05:33:01;;;;;;;9.43;7.47;;;18.50;99.90;;;;;;5085113;28;20442;-73
2021/06/05 05:35:27;;;;;;;9.80;7.97;;;18.60;99.90;;;;;;5091797;28;20020;-73
2021/06/05 05:37:54;;;;;;;12.38;10.50;;;18.50;99.90;;;;;;5085402;28;20051;-73
2021/06/05 05:40:25;;;;;;;10.95;9.02;;;18.70;99.90;;;;;;5095453;28;20076;-73
2021/06/05 05:42:51;;;;;;;13.88;8.60;;;18.70;99.90;;;;;;5087465;28;20107;-73
2021/06/05 05:45:18;;;;;;;11.75;9.38;;;18.70;99.90;;;;;;5086227;28;20545;-73
2021/06/05 05:47:44;;;;;;;11.25;8.73;;;18.80;99.90;;;;;;5103736;28;20123;-73
2021/06/05 05:50:13;;;;;;;10.00;8.32;;;18.90;99.90;;;;;;5085616;28;20040;-73
2021/06/05 05:52:38;;;;;;;12.73;8.43;;;19.00;99.90;;;;;;5089504;28;20034;-73
2021/06/05 05:55:07;;;;;;;10.35;7.50;;;19.00;99.90;;;;;;5104231;28;20028;-73
2021/06/05 05:57:33;;;;;;;10.98;8.13;;;19.00;99.90;;;;;;5098742;28;20031;-73
2021/06/05 05:59:59;;;;;;;9.13;7.13;;;18.90;99.90;;;;;;5105579;28;20020;-73
2021/06/05 06:02:24;;;;;;;10.80;7.93;;;19.00;99.90;;;;;;5090214;28;20028;-73
2021/06/05 06:04:51;;;;;;;10.25;7.78;;;19.00;99.90;;;;;;5084456;28;20032;-73
2021/06/05 06:07:17;;;;;;;10.63;7.78;;;19.10;99.90;;;;;;5088891;28;20020;-73
2021/06/05 06:09:42;;;;;;;11.05;7.97;;;19.10;99.90;;;;;;5084118;28;20119;-73
2021/06/05 06:12:09;;;;;;;11.65;8.25;;;19.20;99.90;;;;;;5093536;28;20047;-73
2021/06/05 06:14:34;;;;;;;13.57;8.68;;;19.40;99.90;;;;;;5090989;28;20044;-73
2021/06/05 06:17:01;;;;;;;12.13;8.38;;;19.40;99.90;;;;;;5093614;28;20072;-73
2021/06/05 06:19:27;;;;;;;15.50;7.97;;;19.50;99.90;;;;;;5095901;28;20097;-74
2021/06/05 06:21:53;;;;;;;10.48;8.50;;;19.50;99.90;;;;;;5110019;28;20019;-77
2021/06/05 06:24:19;;;;;;;10.52;8.00;;;19.50;99.90;;;;;;5108542;28;20063;-77
2021/06/05 06:26:44;;;;;;;10.43;7.68;;;19.50;99.90;;;;;;5093435;28;20024;-76
2021/06/05 06:29:16;;;;;;;10.25;7.90;;;19.60;99.90;;;;;;5093346;28;20035;-76
2021/06/05 06:31:44;;;;;;;9.65;8.00;;;19.70;99.90;;;;;;5093095;28;20016;-74
2021/06/05 06:34:10;;;;;;;8.73;7.13;;;19.80;99.90;;;;;;5091880;28;20400;-75
2021/06/05 06:36:38;;;;;;;15.95;8.05;;;19.80;99.90;;;;;;5093245;28;20020;-74
2021/06/05 06:39:04;;;;;;;13.60;7.63;;;19.80;99.90;;;;;;5091253;28;20035;-74
2021/06/05 06:41:32;;;;;;;10.85;7.00;;;19.90;99.90;;;;;;5101677;28;20487;-74
2021/06/05 06:43:59;;;;;;;10.90;6.93;;;20.00;99.90;;;;;;5086800;28;20050;-74
2021/06/05 06:46:32;;;;;;;7.85;6.30;;;19.90;99.90;;;;;;5089440;28;20035;-74
2021/06/05 06:49:00;;;;;;;9.85;6.93;;;20.00;99.90;;;;;;5093766;28;20107;-75
2021/06/05 06:51:27;;;;;;;8.18;6.07;;;20.10;99.90;;;;;;5095872;28;20556;-75
2021/06/05 06:53:53;;;;;;;9.35;6.60;;;20.10;99.90;;;;;;5100312;28;20121;-75
2021/06/05 06:56:19;;;;;;;7.30;5.90;;;20.30;99.90;;;;;;5083569;28;20024;-75
2021/06/05 06:58:46;;;;;;;9.35;6.90;;;20.50;99.90;;;;;;5084167;28;20035;-74
2021/06/05 07:01:12;;;;;;;9.25;7.13;;;20.70;99.90;;;;;;5094431;28;20032;-75
2021/06/05 07:03:38;;;;;;;9.80;6.82;;;20.90;99.90;;;;;;5102915;28;20045;-75
2021/06/05 07:06:06;;;;;;;11.30;6.55;;;21.20;99.90;;;;;;5103932;28;20040;-75
2021/06/05 07:08:35;;;;;;;9.00;6.22;;;21.40;99.20;;;;;;5095763;28;20019;-75
2021/06/05 07:11:08;;;;;;;10.82;7.65;;;21.50;98.70;;;;;;5097514;28;20031;-74
2021/06/05 07:13:34;;;;;;;8.82;5.80;;;21.70;98.30;;;;;;5092094;28;20051;-75
2021/06/05 07:16:01;;;;;;;16.20;10.32;;;21.90;97.80;;;;;;5081843;28;20059;-75
2021/06/05 07:18:29;;;;;;;9.63;7.07;;;22.20;97.80;;;;;;5093733;28;20026;-75
2021/06/05 07:20:56;;;;;;;7.80;6.15;;;22.40;97.00;;;;;;5097386;28;20044;-74
2021/06/05 07:23:25;;;;;;;6.20;5.35;;;22.60;96.40;;;;;;5097760;28;20058;-75
2021/06/05 07:25:51;;;;;;;21.95;13.15;;;22.60;96.20;;;;;;5088954;28;20111;-75
2021/06/05 07:28:23;;;;;;;29.38;15.07;;;23.10;96.80;;;;;;5102808;28;20057;-75
2021/06/05 07:30:50;;;;;;;9.35;7.15;;;23.70;96.20;;;;;;5088200;28;20154;-74
2021/06/05 07:33:17;;;;;;;16.42;9.95;;;24.50;95.20;;;;;;5098668;28;20351;-75
2021/06/05 07:35:44;;;;;;;49.97;30.40;;;24.90;94.40;;;;;;5105054;28;20053;-75
2021/06/05 07:38:13;;;;;;;12.07;7.78;;;25.50;93.70;;;;;;5105980;28;20030;-75
2021/06/05 07:40:40;;;;;;;13.10;7.65;;;25.70;92.90;;;;;;5107829;28;20039;-75
2021/06/05 07:43:06;;;;;;;18.17;10.73;;;26.10;92.90;;;;;;5103817;28;20019;-75
2021/06/05 07:45:32;;;;;;;9.35;6.25;;;25.70;92.70;;;;;;5103258;28;20042;-75
2021/06/05 07:47:58;;;;;;;6.43;5.18;;;25.80;92.40;;;;;;5092800;28;20036;-75
2021/06/05 07:50:24;;;;;;;6.57;5.40;;;26.00;92.50;;;;;;5088948;28;20035;-75
2021/06/05 07:52:50;;;;;;;8.80;5.60;;;25.70;92.60;;;;;;5096202;28;20028;-75
2021/06/05 07:55:17;;;;;;;7.55;5.40;;;25.80;92.40;;;;;;5105515;28;20020;-75
2021/06/05 07:57:43;;;;;;;11.07;5.57;;;25.20;93.20;;;;;;5094638;28;20032;-75
2021/06/05 08:00:18;;;;;;;9.93;5.80;;;25.20;93.40;;;;;;5072724;28;20501;-76
2021/06/05 08:02:45;;;;;;;8.88;5.07;;;24.60;93.50;;;;;;5073361;28;20027;-75
2021/06/05 08:05:14;;;;;;;8.10;5.50;;;24.70;94.10;;;;;;5073836;28;20043;-74
2021/06/05 08:07:41;;;;;;;8.02;6.15;;;24.90;93.90;;;;;;5080243;28;20402;-73
2021/06/05 08:10:12;;;;;;;8.90;5.47;;;25.20;93.60;;;;;;5076958;28;20046;-74
2021/06/05 08:12:39;;;;;;;6.68;5.32;;;25.20;93.60;;;;;;5077140;28;20032;-74
2021/06/05 08:15:09;;;;;;;7.47;5.10;;;23.90;93.70;;;;;;5071748;28;20116;-75
2021/06/05 08:17:35;;;;;;;5.65;4.45;;;23.90;94.30;;;;;;5067718;28;20238;-75
2021/06/05 08:20:07;;;;;;;8.75;6.05;;;24.40;93.70;;;;;;5079226;28;20027;-75
2021/06/05 08:22:35;;;;;;;7.03;4.93;;;24.20;93.60;;;;;;5074853;28;20630;-75
2021/06/05 08:25:02;;;;;;;6.97;4.75;;;24.60;93.50;;;;;;5079420;28;20118;-76
2021/06/05 08:27:28;;;;;;;6.90;5.65;;;25.00;93.00;;;;;;5075526;28;20395;-75
2021/06/05 08:29:54;;;;;;;6.47;4.60;;;24.90;92.90;;;;;;5075018;28;20459;-74
2021/06/05 08:32:20;;;;;;;7.22;5.18;;;24.70;93.70;;;;;;5072513;28;20024;-74
2021/06/05 08:34:47;;;;;;;7.82;5.20;;;24.70;93.40;;;;;;5088787;28;20049;-74
2021/06/05 08:37:12;;;;;;;6.55;4.43;;;24.60;93.60;;;;;;5074295;28;20039;-75
2021/06/05 08:39:39;;;;;;;7.32;4.38;;;24.90;93.50;;;;;;5074958;28;20035;-74
2021/06/05 08:42:07;;;;;;;9.15;4.93;;;24.80;93.10;;;;;;5076121;28;20130;-75
2021/06/05 08:44:40;;;;;;;10.05;5.05;;;24.80;93.60;;;;;;5072252;28;20054;-74
2021/06/05 08:47:18;;;;;;;8.82;5.13;;;24.70;93.30;;;;;;5073499;28;20120;-75
2021/06/05 08:49:45;;;;;;;6.28;4.97;;;24.90;93.00;;;;;;5071962;28;20040;-74
2021/06/05 08:52:30;;;;;;;10.63;4.97;;;25.00;93.00;;;;;;5081339;28;20476;-74
2021/06/05 08:55:27;;;;;;;13.45;5.70;;;25.00;93.20;;;;;;5075262;28;20028;-76
2021/06/05 08:58:00;;;;;;;8.23;5.15;;;25.00;92.50;;;;;;5079355;28;20075;-78
2021/06/05 09:00:40;;;;;;;9.57;5.47;;;25.00;92.70;;;;;;5070599;28;20073;-74
2021/06/05 09:03:13;;;;;;;7.18;5.32;;;25.20;93.00;;;;;;5079296;28;20039;-74
2021/06/05 09:05:51;;;;;;;15.05;6.03;;;25.40;92.80;;;;;;5074492;28;20176;-72
2021/06/05 09:08:22;;;;;;;6.90;5.35;;;25.10;93.40;;;;;;5073049;28;20031;-73
2021/06/05 09:10:54;;;;;;;34.90;6.95;;;25.30;93.00;;;;;;5070173;28;20024;-75
2021/06/05 09:13:21;;;;;;;17.15;6.70;;;25.20;92.90;;;;;;5077101;28;20073;-76
2021/06/05 09:16:08;;;;;;;6.43;4.50;;;25.40;92.60;;;;;;5067025;28;343791;-74
2021/06/05 09:18:56;;;;;;;9.10;5.40;;;25.80;91.70;;;;;;5072069;28;20028;-74
2021/06/05 09:21:32;;;;;;;8.18;5.43;;;26.10;91.30;;;;;;5072692;28;20024;-73
2021/06/05 09:24:40;;;;;;;7.63;5.78;;;26.10;91.60;;;;;;5079883;28;20758;-73
2021/06/05 09:27:32;;;;;;;8.25;5.18;;;25.50;91.50;;;;;;5072480;28;20621;-75
2021/06/05 09:30:23;;;;;;;48.47;7.85;;;25.90;90.90;;;;;;5074121;28;20029;-73
2021/06/05 09:32:55;;;;;;;7.82;5.47;;;25.80;90.50;;;;;;5072476;28;20094;-75
2021/06/05 09:35:28;;;;;;;7.13;5.82;;;25.70;91.40;;;;;;5081026;28;20123;-76
2021/06/05 09:38:12;;;;;;;19.02;5.60;;;26.40;91.30;;;;;;5081501;28;20118;-75
2021/06/05 09:41:06;;;;;;;9.57;6.60;;;26.60;92.10;;;;;;5071649;28;20656;-77
2021/06/05 09:43:35;;;;;;;11.88;6.25;;;26.60;90.90;;;;;;5070504;28;20035;-74
2021/06/05 09:46:34;;;;;;;7.50;6.10;;;26.30;90.80;;;;;;5073458;28;20028;-77
2021/06/05 09:49:14;;;;;;;14.57;6.15;;;26.30;91.20;;;;;;5073146;28;20039;-75
2021/06/05 09:51:44;;;;;;;10.15;6.22;;;26.40;91.40;;;;;;5080455;28;20142;-75
2021/06/05 09:54:27;;;;;;;8.02;5.75;;;26.80;91.40;;;;;;5071671;28;20234;-76
2021/06/05 09:57:03;;;;;;;7.03;5.93;;;27.00;91.10;;;;;;5073879;28;20432;-76
2021/06/05 09:59:33;;;;;;;6.65;5.80;;;26.70;90.00;;;;;;5077665;28;20488;-75
2021/06/05 10:02:30;;;;;;;8.60;5.80;;;26.20;90.40;;;;;;5071375;28;20024;-77
2021/06/05 10:05:05;;;;;;;8.95;6.35;;;26.60;91.30;;;;;;5068718;28;20579;-76
2021/06/05 10:07:32;;;;;;;8.55;5.88;;;26.80;90.40;;;;;;5079535;28;20484;-76
2021/06/05 10:10:01;;;;;;;12.43;6.63;;;26.90;90.80;;;;;;5087743;28;20031;-75
2021/06/05 10:12:30;;;;;;;24.40;7.63;;;26.80;89.70;;;;;;5088634;28;20024;-75
2021/06/05 10:15:20;;;;;;;7.95;6.43;;;27.00;90.70;;;;;;5096979;28;20097;-75
2021/06/05 10:18:01;;;;;;;7.55;5.60;;;26.90;91.00;;;;;;5091483;28;20036;-74
2021/06/05 10:20:51;;;;;;;11.60;5.55;;;26.50;91.60;;;;;;5084696;28;20035;-74
2021/06/05 10:23:29;;;;;;;8.43;6.00;;;27.10;91.60;;;;;;5078503;28;20143;-75
2021/06/05 10:26:04;;;;;;;13.63;6.07;;;27.10;90.30;;;;;;5071594;28;20027;-74
2021/06/05 10:28:48;;;;;;;17.70;6.28;;;27.10;91.80;;;;;;5074217;28;20142;-75
2021/06/05 10:31:18;;;;;;;9.65;6.00;;;27.20;91.20;;;;;;5073697;28;20114;-75
2021/06/05 10:34:09;;;;;;;7.75;5.50;;;27.30;91.60;;;;;;5071761;28;20032;-75
2021/06/05 10:36:46;;;;;;;10.32;6.15;;;27.40;91.30;;;;;;5074112;28;20032;-76
2021/06/05 10:39:24;;;;;;;9.43;5.18;;;27.20;90.80;;;;;;5072784;28;20066;-75
2021/06/05 10:42:03;;;;;;;8.68;5.07;;;27.50;90.50;;;;;;5090127;28;20607;-75
2021/06/05 10:44:29;;;;;;;7.50;5.10;;;27.80;91.40;;;;;;5072161;28;20148;-75
2021/06/05 10:47:17;;;;;;;7.32;4.80;;;27.90;90.20;;;;;;5074021;28;20039;-75
2021/06/05 10:49:56;;;;;;;8.07;4.90;;;27.70;90.40;;;;;;5071130;28;20032;-75
2021/06/05 10:52:31;;;;;;;11.32;6.03;;;27.70;90.70;;;;;;5072919;28;20177;-75
2021/06/05 10:55:41;;;;;;;10.30;5.55;;;27.80;90.80;;;;;;5071537;28;20036;-75
2021/06/05 10:58:10;;;;;;;8.13;4.85;;;27.80;90.30;;;;;;5042832;28;20036;-75
2021/06/05 11:00:42;;;;;;;13.77;4.30;;;28.50;88.80;;;;;;5071242;28;20035;-75
2021/06/05 11:03:31;;;;;;;10.05;4.32;;;28.70;87.20;;;;;;5091440;28;20063;-75
2021/06/05 11:06:14;;;;;;;5.65;3.58;;;28.80;86.30;;;;;;5097128;28;20036;-75
2021/06/05 11:08:45;;;;;;;8.55;4.15;;;28.90;85.90;;;;;;5098809;28;20036;-74
2021/06/05 11:11:43;;;;;;;7.38;4.03;;;28.80;85.30;;;;;;5084621;28;20121;-75
2021/06/05 11:14:21;;;;;;;6.93;3.85;;;28.70;84.70;;;;;;5089000;28;20027;-75
2021/06/05 11:17:01;;;;;;;6.97;4.18;;;28.80;84.50;;;;;;5088624;28;20085;-75
2021/06/05 11:19:39;;;;;;;9.10;4.45;;;29.20;84.20;;;;;;5073041;28;20239;-75
2021/06/05 11:22:28;;;;;;;8.82;4.63;;;28.90;85.00;;;;;;5070798;28;20028;-76
2021/06/05 11:25:07;;;;;;;7.70;4.00;;;29.00;85.00;;;;;;5072068;28;20039;-74
2021/06/05 11:27:36;;;;;;;8.75;5.50;;;28.70;86.40;;;;;;5100739;28;20069;-75
2021/06/05 11:30:26;;;;;;;9.40;4.68;;;28.70;85.30;;;;;;5099476;28;20051;-74
2021/06/05 11:33:08;;;;;;;7.20;4.63;;;28.70;86.60;;;;;;5094959;28;20396;-75
2021/06/05 11:35:40;;;;;;;8.48;4.47;;;28.60;86.10;;;;;;5084135;28;20028;-74
2021/06/05 11:38:32;;;;;;;6.65;3.72;;;28.60;85.50;;;;;;5078359;28;20038;-75
2021/06/05 11:41:31;;;;;;;6.70;4.38;;;29.00;86.30;;;;;;5062270;28;20087;-76
2021/06/05 11:44:22;;;;;;;6.28;4.22;;;29.20;85.60;;;;;;5070679;28;20040;-75
2021/06/05 11:46:52;;;;;;;8.57;4.25;;;29.10;85.80;;;;;;5077367;28;20075;-75
2021/06/05 11:49:40;;;;;;;11.68;4.10;;;29.10;85.00;;;;;;5094106;28;20028;-75
2021/06/05 11:52:32;;;;;;;7.65;4.03;;;28.70;85.40;;;;;;5087984;28;20040;-76
2021/06/05 11:55:12;;;;;;;7.80;4.18;;;28.90;85.40;;;;;;5070172;28;20120;-75
2021/06/05 11:57:44;;;;;;;13.95;4.07;;;28.90;84.60;;;;;;5073394;28;20126;-75
2021/06/05 12:00:17;;;;;;;8.00;3.78;;;29.00;84.20;;;;;;5078076;28;20119;-74
2021/06/05 12:02:46;;;;;;;6.93;3.57;;;29.20;84.40;;;;;;5071115;28;20046;-75
2021/06/05 12:05:24;;;;;;;7.38;3.60;;;29.50;84.30;;;;;;5071221;28;20289;-75
2021/06/05 12:07:52;;;;;;;8.65;3.47;;;29.80;82.80;;;;;;5076100;28;20488;-74
2021/06/05 12:10:36;;;;;;;7.43;3.30;;;30.00;82.20;;;;;;5083371;28;21499;-76
2021/06/05 12:13:05;;;;;;;4.90;2.65;;;30.30;82.50;;;;;;5084998;28;20016;-75
2021/06/05 12:15:37;;;;;;;8.45;3.42;;;30.10;81.90;;;;;;5096083;28;20039;-75
2021/06/05 12:18:29;;;;;;;8.13;3.60;;;30.10;82.40;;;;;;5106668;28;20111;-74
2021/06/05 12:21:06;;;;;;;6.78;3.47;;;30.20;82.60;;;;;;5101051;28;20078;-75
2021/06/05 12:23:35;;;;;;;4.95;2.70;;;30.20;80.30;;;;;;5098932;28;20038;-75
2021/06/05 12:26:01;;;;;;;4.47;2.80;;;30.30;81.20;;;;;;5099158;28;20059;-76
2021/06/05 12:28:33;;;;;;;13.02;3.60;;;30.00;80.90;;;;;;5076290;28;20063;-75
2021/06/05 12:31:19;;;;;;;9.00;3.47;;;30.00;80.10;;;;;;5076535;28;20028;-74
2021/06/05 12:33:59;;;;;;;6.93;3.00;;;30.10;79.50;;;;;;5074363;28;20339;-75
2021/06/05 12:36:29;;;;;;;5.07;2.30;;;29.80;81.10;;;;;;5073779;28;20075;-75
2021/06/05 12:39:09;;;;;;;5.50;2.90;;;29.70;81.20;;;;;;5076393;28;20024;-75
2021/06/05 12:41:35;;;;;;;7.28;2.63;;;30.10;79.60;;;;;;5077723;28;20032;-75
2021/06/05 12:44:01;;;;;;;13.43;3.38;;;30.10;79.40;;;;;;5077846;28;20039;-75
2021/06/05 12:46:36;;;;;;;13.18;3.92;;;29.60;80.10;;;;;;5079674;28;20037;-74
2021/06/05 12:49:06;;;;;;;12.02;3.40;;;29.50;81.40;;;;;;5074535;28;20024;-75
2021/06/05 12:51:40;;;;;;;8.13;3.15;;;29.40;81.20;;;;;;5074539;28;20032;-75
2021/06/05 12:54:10;;;;;;;7.25;3.55;;;30.00;81.20;;;;;;5080158;28;20553;-75
2021/06/05 12:56:44;;;;;;;5.45;3.30;;;30.20;80.40;;;;;;5073818;28;20052;-76
2021/06/05 12:59:28;;;;;;;7.60;3.65;;;29.40;79.80;;;;;;5075377;28;20026;-75
2021/06/05 13:01:54;;;;;;;10.48;3.55;;;29.50;80.00;;;;;;5073276;28;20027;-75